createdAt,value
2022-09-25T00:00:50.424Z,2.07
2022-09-25T00:03:18.949Z,1.80
2022-09-25T00:05:48.149Z,1.87
2022-09-25T00:08:16.445Z,1.50
2022-09-25T00:10:45.304Z,1.63
2022-09-25T00:13:14.661Z,2.00
2022-09-25T00:15:47.025Z,1.60
2022-09-25T00:18:15.159Z,1.60
2022-09-25T00:20:42.237Z,2.03
2022-09-25T00:23:10.220Z,1.57
2022-09-25T00:25:38.117Z,1.30
2022-09-25T00:28:06.395Z,1.30
2022-09-25T00:30:36.359Z,1.00
2022-09-25T00:33:04.305Z,1.47
2022-09-25T00:35:32.294Z,1.33
2022-09-25T00:38:00.218Z,0.83
2022-09-25T00:40:28.183Z,1.30
2022-09-25T00:42:56.108Z,1.20
2022-09-25T00:45:24.062Z,0.77
2022-09-25T00:47:56.749Z,1.10
2022-09-25T00:50:28.281Z,0.80
2022-09-25T00:52:57.454Z,1.20
2022-09-25T00:55:25.406Z,1.20
2022-09-25T00:57:55.318Z,1.30
2022-09-25T01:00:23.349Z,0.93
2022-09-25T01:02:54.432Z,0.80
2022-09-25T01:05:25.789Z,1.00
2022-09-25T01:07:54.182Z,1.20
2022-09-25T01:10:22.492Z,1.20
2022-09-25T01:12:51.345Z,0.80
2022-09-25T01:15:20.549Z,1.20
2022-09-25T01:17:54.527Z,0.80
2022-09-25T01:20:28.517Z,0.80
2022-09-25T01:23:06.566Z,0.53
2022-09-25T01:25:40.919Z,0.63
2022-09-25T01:28:19.454Z,0.90
2022-09-25T01:30:52.308Z,0.67
2022-09-25T01:33:24.499Z,0.70
2022-09-25T01:35:58.526Z,0.73
2022-09-25T01:38:31.376Z,0.67
2022-09-25T01:41:02.778Z,0.80
2022-09-25T01:43:33.714Z,0.80
2022-09-25T01:46:04.070Z,0.70
2022-09-25T01:48:33.140Z,0.83
2022-09-25T01:51:02.942Z,0.90
2022-09-25T01:53:32.878Z,0.70
2022-09-25T01:56:04.168Z,0.70
2022-09-25T01:58:34.766Z,0.80
2022-09-25T02:01:07.332Z,0.70
2022-09-25T02:03:38.529Z,1.10
2022-09-25T02:06:10.185Z,1.07
2022-09-25T02:08:40.495Z,1.07
2022-09-25T02:11:08.804Z,1.03
2022-09-25T02:13:39.462Z,1.03
2022-09-25T02:16:11.068Z,1.20
2022-09-25T02:18:56.616Z,1.10
2022-09-25T02:21:29.024Z,1.27
2022-09-25T02:24:01.663Z,1.00
2022-09-25T02:26:31.342Z,1.00
2022-09-25T02:28:59.918Z,1.50
2022-09-25T02:31:31.229Z,1.47
2022-09-25T02:33:59.404Z,2.00
2022-09-25T02:36:27.321Z,1.10
2022-09-25T02:38:56.797Z,1.27
2022-09-25T02:41:29.845Z,1.53
2022-09-25T02:44:04.577Z,1.67
2022-09-25T02:46:38.775Z,1.33
2022-09-25T02:49:09.828Z,1.30
2022-09-25T02:51:42.139Z,1.60
2022-09-25T02:54:11.679Z,1.63
2022-09-25T02:56:43.478Z,1.70
2022-09-25T02:59:16.038Z,1.83
2022-09-25T03:01:47.121Z,1.50
2022-09-25T03:04:15.997Z,1.40
2022-09-25T03:06:45.945Z,1.57
2022-09-25T03:09:15.113Z,1.80
2022-09-25T03:11:44.027Z,2.40
2022-09-25T03:14:12.089Z,2.73
2022-09-25T03:16:41.721Z,1.90
2022-09-25T03:19:11.156Z,1.90
2022-09-25T03:21:39.074Z,2.10
2022-09-25T03:24:07.531Z,2.10
2022-09-25T03:26:35.514Z,1.60
2022-09-25T03:29:03.490Z,1.20
2022-09-25T03:31:31.631Z,1.10
2022-09-25T03:34:00.016Z,0.97
2022-09-25T03:36:30.165Z,1.20
2022-09-25T03:38:59.210Z,1.37
2022-09-25T03:41:28.228Z,1.20
2022-09-25T03:43:56.859Z,1.23
2022-09-25T03:46:26.187Z,1.40
2022-09-25T03:48:54.345Z,1.73
2022-09-25T03:51:22.809Z,2.60
2022-09-25T03:53:52.407Z,2.90
2022-09-25T03:56:21.422Z,3.07
2022-09-25T03:58:49.573Z,2.03
2022-09-25T04:01:19.602Z,2.93
2022-09-25T04:03:47.609Z,2.37
2022-09-25T04:06:18.530Z,4.50
2022-09-25T04:08:47.280Z,6.47
2022-09-25T04:11:16.922Z,4.40
2022-09-25T04:13:45.042Z,4.53
2022-09-25T04:16:13.664Z,4.33
2022-09-25T04:18:43.101Z,4.13
2022-09-25T04:21:12.377Z,3.73
2022-09-25T04:23:40.497Z,3.27
2022-09-25T04:26:09.293Z,3.07
2022-09-25T04:28:38.751Z,2.03
2022-09-25T04:31:07.084Z,1.83
2022-09-25T04:33:46.531Z,2.10
2022-09-25T04:36:15.378Z,1.77
2022-09-25T04:38:44.290Z,1.70
2022-09-25T04:41:12.676Z,1.60
2022-09-25T04:43:43.635Z,1.77
2022-09-25T04:46:18.330Z,1.40
2022-09-25T04:48:49.229Z,1.60
2022-09-25T04:51:17.302Z,1.30
2022-09-25T04:53:45.426Z,1.33
2022-09-25T04:56:15.878Z,1.30
2022-09-25T04:58:46.934Z,1.23
2022-09-25T05:01:15.125Z,1.47
2022-09-25T05:03:44.328Z,1.20
2022-09-25T05:06:12.311Z,1.10
2022-09-25T05:08:40.201Z,0.90
2022-09-25T05:11:08.417Z,1.20
2022-09-25T05:13:36.592Z,1.10
2022-09-25T05:16:06.112Z,1.73
2022-09-25T05:18:34.095Z,1.20
2022-09-25T05:21:04.543Z,1.20
2022-09-25T05:23:32.500Z,1.20
2022-09-25T05:26:02.584Z,1.40
2022-09-25T05:28:30.863Z,1.20
2022-09-25T05:31:00.246Z,1.50
2022-09-25T05:33:29.634Z,1.53
2022-09-25T05:36:01.273Z,1.60
2022-09-25T05:38:30.067Z,1.80
2022-09-25T05:41:03.194Z,1.50
2022-09-25T05:43:31.606Z,1.57
2022-09-25T05:46:00.422Z,1.50
2022-09-25T05:48:29.865Z,1.70
2022-09-25T05:50:58.579Z,1.83
2022-09-25T05:53:27.030Z,1.60
2022-09-25T05:55:55.298Z,1.77
2022-09-25T05:58:23.245Z,1.70
2022-09-25T06:00:51.383Z,1.53
2022-09-25T06:03:19.999Z,1.70
2022-09-25T06:05:49.798Z,1.70
2022-09-25T06:08:17.749Z,1.80
2022-09-25T06:10:46.334Z,1.57
2022-09-25T06:13:14.612Z,2.10
2022-09-25T06:15:42.896Z,1.90
2022-09-25T06:18:10.942Z,1.53
2022-09-25T06:20:38.896Z,2.00
2022-09-25T06:23:08.254Z,1.90
2022-09-25T06:25:36.637Z,2.10
2022-09-25T06:28:04.590Z,2.10
2022-09-25T06:30:34.789Z,2.13
2022-09-25T06:33:02.996Z,2.40
2022-09-25T06:35:31.183Z,2.13
2022-09-25T06:37:59.891Z,1.80
2022-09-25T06:40:31.445Z,1.83
2022-09-25T06:42:59.536Z,2.23
2022-09-25T06:45:27.893Z,2.20
2022-09-25T06:47:58.045Z,2.37
2022-09-25T06:50:32.891Z,2.20
2022-09-25T06:53:00.946Z,2.30
2022-09-25T06:55:32.446Z,2.13
2022-09-25T06:58:00.430Z,2.50
2022-09-25T07:00:28.406Z,2.43
2022-09-25T07:03:13.869Z,2.50
2022-09-25T07:05:42.773Z,2.30
2022-09-25T07:08:10.734Z,2.40
2022-09-25T07:10:45.076Z,2.30
2022-09-25T07:13:13.658Z,2.47
2022-09-25T07:15:41.746Z,2.40
2022-09-25T07:18:09.809Z,2.40
2022-09-25T07:20:37.873Z,2.30
2022-09-25T07:23:05.903Z,2.57
2022-09-25T07:25:33.858Z,2.53
2022-09-25T07:28:03.531Z,2.93
2022-09-25T07:30:31.584Z,2.90
2022-09-25T07:33:00.328Z,2.70
2022-09-25T07:35:28.559Z,2.90
2022-09-25T07:37:57.131Z,2.77
2022-09-25T07:40:26.518Z,2.90
2022-09-25T07:42:54.599Z,2.57
2022-09-25T07:45:24.036Z,2.50
2022-09-25T07:47:52.066Z,2.80
2022-09-25T07:50:20.011Z,2.80
2022-09-25T07:52:47.987Z,3.10
2022-09-25T07:55:15.952Z,2.40
2022-09-25T07:57:44.181Z,2.30
2022-09-25T08:00:12.984Z,2.77
2022-09-25T08:02:42.358Z,1.90
2022-09-25T08:05:11.773Z,2.23
2022-09-25T08:07:39.873Z,2.40
2022-09-25T08:10:08.457Z,2.53
2022-09-25T08:12:37.213Z,2.47
2022-09-25T08:15:05.343Z,2.23
2022-09-25T08:17:33.390Z,2.27
2022-09-25T08:20:03.011Z,2.27
2022-09-25T08:22:30.957Z,2.27
2022-09-25T08:24:59.022Z,2.57
2022-09-25T08:27:26.939Z,2.47
2022-09-25T08:29:54.868Z,2.17
2022-09-25T08:32:22.840Z,2.30
2022-09-25T08:34:50.766Z,1.90
2022-09-25T08:37:21.250Z,1.30
2022-09-25T08:39:49.338Z,1.50
2022-09-25T08:42:18.581Z,1.43
2022-09-25T08:45:08.967Z,2.13
2022-09-25T08:47:55.497Z,1.80
2022-09-25T08:50:24.352Z,1.60
2022-09-25T08:52:59.020Z,1.80
2022-09-25T08:55:49.010Z,2.13
2022-09-25T08:58:21.152Z,2.03
2022-09-25T09:00:49.369Z,2.00
2022-09-25T09:03:17.487Z,2.10
2022-09-25T09:05:51.456Z,1.70
2022-09-25T09:08:25.497Z,1.70
2022-09-25T09:10:55.720Z,2.37
2022-09-25T09:13:28.224Z,2.23
2022-09-25T09:15:58.728Z,2.30
2022-09-25T09:18:27.578Z,2.07
2022-09-25T09:20:56.486Z,2.10
2022-09-25T09:23:26.685Z,2.83
2022-09-25T09:25:59.857Z,2.60
2022-09-25T09:28:51.105Z,2.80
2022-09-25T09:31:22.258Z,2.10
2022-09-25T09:33:54.386Z,2.53
2022-09-25T09:36:28.875Z,2.40
2022-09-25T09:39:03.892Z,2.73
2022-09-25T09:41:40.413Z,2.47
2022-09-25T09:44:15.409Z,2.40
2022-09-25T09:46:47.591Z,2.40
2022-09-25T09:49:17.961Z,2.20
2022-09-25T09:51:48.829Z,2.20
2022-09-25T09:54:21.459Z,2.27
2022-09-25T09:56:50.925Z,2.10
2022-09-25T09:59:21.244Z,1.73
2022-09-25T10:01:53.748Z,2.10
2022-09-25T10:04:23.898Z,2.00
2022-09-25T10:06:53.747Z,2.13
2022-09-25T10:09:25.230Z,1.70
2022-09-25T10:11:58.332Z,1.60
2022-09-25T10:14:27.230Z,1.50
2022-09-25T10:16:55.157Z,1.53
2022-09-25T10:19:24.775Z,1.93
2022-09-25T10:21:55.435Z,1.80
2022-09-25T10:24:58.642Z,1.80
2022-09-25T10:27:36.192Z,1.73
2022-09-25T10:30:13.644Z,1.67
2022-09-25T10:32:43.946Z,1.50
2022-09-25T10:35:15.696Z,1.60
2022-09-25T10:37:43.754Z,1.50
2022-09-25T10:40:24.706Z,2.23
2022-09-25T10:43:02.922Z,2.20
2022-09-25T10:45:32.154Z,1.40
2022-09-25T10:48:17.768Z,1.60
2022-09-25T10:50:45.858Z,1.67
2022-09-25T10:53:28.444Z,1.50
2022-09-25T10:56:00.806Z,1.47
2022-09-25T10:58:32.196Z,1.60
2022-09-25T11:01:02.230Z,1.60
2022-09-25T11:03:32.376Z,1.67
2022-09-25T11:06:01.990Z,1.60
2022-09-25T11:08:31.444Z,1.40
2022-09-25T11:11:00.113Z,1.40
2022-09-25T11:13:30.243Z,1.53
2022-09-25T11:16:00.588Z,1.43
2022-09-25T11:18:36.081Z,2.83
2022-09-25T11:21:04.658Z,9.57
2022-09-25T11:23:35.974Z,3.27
2022-09-25T11:26:07.307Z,3.67
2022-09-25T11:28:38.879Z,4.73
2022-09-25T11:31:15.627Z,1.77
2022-09-25T11:33:46.359Z,1.27
2022-09-25T11:36:18.508Z,2.07
2022-09-25T11:39:05.401Z,1.20
2022-09-25T11:41:34.695Z,1.53
2022-09-25T11:44:17.593Z,1.70
2022-09-25T11:46:51.532Z,1.77
2022-09-25T11:49:22.639Z,1.60
2022-09-25T11:52:17.677Z,1.40
2022-09-25T11:54:53.020Z,1.27
2022-09-25T11:57:29.578Z,1.70
2022-09-25T12:00:05.319Z,1.50
2022-09-25T12:02:41.301Z,1.23
2022-09-25T12:05:20.261Z,1.10
2022-09-25T12:08:06.469Z,1.10
2022-09-25T12:10:40.115Z,1.00
2022-09-25T12:13:13.991Z,4.10
2022-09-25T12:15:48.209Z,3.93
2022-09-25T12:18:24.314Z,3.30
2022-09-25T12:20:54.112Z,2.20
2022-09-25T12:23:26.496Z,1.20
2022-09-25T12:26:02.633Z,1.20
2022-09-25T12:28:34.167Z,1.50
2022-09-25T12:31:07.092Z,1.00
2022-09-25T12:33:39.794Z,1.37
2022-09-25T12:36:10.554Z,1.43
2022-09-25T12:38:42.198Z,1.50
2022-09-25T12:41:12.762Z,1.70
2022-09-25T12:43:44.393Z,1.30
2022-09-25T12:46:16.484Z,1.10
2022-09-25T12:48:50.667Z,1.70
2022-09-25T12:51:21.729Z,1.37
2022-09-25T12:53:51.876Z,1.17
2022-09-25T12:56:22.913Z,1.30
2022-09-25T12:58:54.518Z,1.20
2022-09-25T13:01:25.554Z,1.10
2022-09-25T13:03:59.791Z,1.20
2022-09-25T13:06:32.842Z,1.13
2022-09-25T13:09:04.526Z,0.80
2022-09-25T13:11:38.426Z,1.00
2022-09-25T13:14:09.594Z,0.90
2022-09-25T13:16:38.051Z,1.00
2022-09-25T13:19:14.245Z,1.00
2022-09-25T13:21:44.193Z,0.63
2022-09-25T13:24:14.032Z,1.10
2022-09-25T13:26:47.484Z,1.00
2022-09-25T13:29:22.126Z,0.83
2022-09-25T13:31:50.322Z,1.00
2022-09-25T13:34:21.247Z,0.90
2022-09-25T13:36:50.465Z,0.87
2022-09-25T13:39:37.850Z,0.83
2022-09-25T13:42:07.838Z,0.80
2022-09-25T13:44:41.274Z,0.77
2022-09-25T13:47:36.781Z,0.73
2022-09-25T13:50:19.021Z,0.50
2022-09-25T13:53:15.881Z,0.53
2022-09-25T13:55:44.236Z,0.70
2022-09-25T13:58:18.820Z,1.00
2022-09-25T14:00:56.004Z,1.20
2022-09-25T14:03:32.450Z,0.80
2022-09-25T14:06:02.367Z,0.60
2022-09-25T14:08:31.227Z,0.87
2022-09-25T14:11:00.344Z,0.60
2022-09-25T14:13:31.491Z,0.60
2022-09-25T14:16:03.070Z,0.63
2022-09-25T14:18:36.411Z,0.70
2022-09-25T14:21:06.543Z,1.10
2022-09-25T14:23:34.756Z,0.50
2022-09-25T14:26:03.214Z,0.70
2022-09-25T14:28:32.297Z,0.53
2022-09-25T14:31:15.533Z,0.80
2022-09-25T14:33:58.268Z,0.60
2022-09-25T14:36:37.253Z,0.67
2022-09-25T14:39:11.776Z,0.30
2022-09-25T14:41:55.281Z,0.50
2022-09-25T14:44:44.852Z,0.50
2022-09-25T14:47:14.891Z,0.50
2022-09-25T14:49:44.430Z,0.60
2022-09-25T14:52:16.306Z,0.40
2022-09-25T14:54:46.343Z,0.80
2022-09-25T14:57:18.362Z,0.77
2022-09-25T14:59:51.576Z,0.33
2022-09-25T15:02:22.989Z,0.57
2022-09-25T15:04:51.246Z,0.60
2022-09-25T15:07:24.528Z,0.80
2022-09-25T15:09:55.584Z,0.73
2022-09-25T15:12:25.941Z,0.40
2022-09-25T15:15:00.766Z,0.53
2022-09-25T15:17:29.636Z,0.50
2022-09-25T15:19:59.317Z,0.40
2022-09-25T15:22:31.210Z,0.50
2022-09-25T15:25:00.466Z,0.77
2022-09-25T15:27:29.032Z,0.97
2022-09-25T15:29:57.765Z,0.50
2022-09-25T15:32:28.633Z,0.60
2022-09-25T15:35:16.002Z,0.80
2022-09-25T15:37:45.703Z,0.70
2022-09-25T15:40:19.406Z,1.00
2022-09-25T15:42:48.371Z,1.13
2022-09-25T15:45:35.133Z,1.00
2022-09-25T15:48:03.858Z,0.90
2022-09-25T15:50:31.900Z,1.03
2022-09-25T15:53:02.514Z,1.13
2022-09-25T15:55:33.156Z,0.70
2022-09-25T15:58:08.788Z,0.70
2022-09-25T16:00:54.126Z,1.20
2022-09-25T16:03:40.612Z,0.93
2022-09-25T16:06:13.968Z,1.40
2022-09-25T16:08:43.688Z,1.10
2022-09-25T16:11:20.123Z,1.10
2022-09-25T16:13:51.502Z,1.33
2022-09-25T16:16:24.177Z,1.30
2022-09-25T16:18:54.684Z,1.43
2022-09-25T16:21:25.321Z,1.30
2022-09-25T16:23:56.559Z,1.47
2022-09-25T16:26:26.247Z,1.50
2022-09-25T16:28:58.682Z,1.50
2022-09-25T16:31:26.960Z,1.10
2022-09-25T16:33:57.440Z,1.00
2022-09-25T16:36:26.866Z,1.40
2022-09-25T16:39:12.337Z,0.90
2022-09-25T16:41:42.752Z,1.27
2022-09-25T16:44:14.874Z,1.20
2022-09-25T16:46:43.450Z,0.60
2022-09-25T16:49:12.367Z,1.67
2022-09-25T16:51:45.651Z,2.20
2022-09-25T16:54:16.397Z,1.40
2022-09-25T16:56:44.791Z,0.80
2022-09-25T16:59:17.388Z,0.83
2022-09-25T17:01:45.737Z,1.17
2022-09-25T17:04:14.304Z,0.90
2022-09-25T17:06:44.525Z,0.83
2022-09-25T17:09:13.397Z,0.80
2022-09-25T17:11:44.576Z,0.83
2022-09-25T17:14:17.926Z,0.87
2022-09-25T17:16:45.857Z,0.70
2022-09-25T17:19:18.213Z,0.70
2022-09-25T17:21:47.578Z,0.80
2022-09-25T17:24:16.897Z,2.63
2022-09-25T17:26:46.855Z,4.20
2022-09-25T17:29:14.996Z,4.47
2022-09-25T17:31:42.937Z,1.20
2022-09-25T17:34:11.898Z,1.07
2022-09-25T17:36:39.978Z,1.20
2022-09-25T17:39:08.004Z,1.30
2022-09-25T17:41:37.056Z,0.80
2022-09-25T17:44:06.788Z,0.90
2022-09-25T17:46:37.615Z,1.00
2022-09-25T17:49:05.774Z,1.00
2022-09-25T17:51:33.863Z,1.63
2022-09-25T17:54:02.921Z,1.23
2022-09-25T17:56:31.249Z,1.60
2022-09-25T17:58:59.390Z,1.10
2022-09-25T18:01:30.055Z,1.30
2022-09-25T18:03:59.089Z,1.17
2022-09-25T18:06:27.821Z,1.00
2022-09-25T18:08:56.350Z,1.50
2022-09-25T18:11:25.515Z,1.13
2022-09-25T18:13:54.636Z,1.53
2022-09-25T18:16:25.011Z,1.27
2022-09-25T18:19:12.790Z,1.50
2022-09-25T18:21:58.135Z,1.30
2022-09-25T18:24:26.448Z,1.30
2022-09-25T18:26:55.487Z,1.40
2022-09-25T18:29:23.745Z,1.50
2022-09-25T18:31:52.177Z,1.10
2022-09-25T18:34:23.013Z,1.40
2022-09-25T18:36:51.185Z,1.63
2022-09-25T18:39:20.612Z,1.23
2022-09-25T18:41:49.515Z,1.60
2022-09-25T18:44:19.717Z,1.40
2022-09-25T18:46:48.287Z,1.73
2022-09-25T18:49:16.588Z,1.10
2022-09-25T18:51:46.343Z,1.60
2022-09-25T18:54:14.768Z,2.27
2022-09-25T18:56:43.628Z,2.10
2022-09-25T18:59:11.831Z,1.50
2022-09-25T19:01:40.606Z,1.43
2022-09-25T19:04:10.251Z,1.00
2022-09-25T19:06:38.681Z,1.87
2022-09-25T19:09:13.845Z,1.57
2022-09-25T19:11:44.711Z,1.40
2022-09-25T19:14:15.119Z,1.60
2022-09-25T19:16:44.171Z,1.20
2022-09-25T19:19:12.413Z,1.50
2022-09-25T19:21:41.954Z,1.67
2022-09-25T19:24:11.454Z,1.50
2022-09-25T19:26:41.785Z,1.47
2022-09-25T19:29:09.893Z,1.60
2022-09-25T19:31:38.194Z,1.40
2022-09-25T19:34:06.291Z,1.73
2022-09-25T19:36:35.432Z,1.70
2022-09-25T19:39:03.631Z,1.70
2022-09-25T19:41:34.288Z,1.60
2022-09-25T19:44:06.873Z,1.60
2022-09-25T19:46:41.037Z,1.20
2022-09-25T19:49:09.301Z,1.93
2022-09-25T19:51:37.826Z,1.77
2022-09-25T19:54:05.986Z,1.80
2022-09-25T19:56:37.474Z,1.73
2022-09-25T19:59:07.171Z,2.00
2022-09-25T20:01:35.227Z,2.30
2022-09-25T20:04:06.679Z,2.10
2022-09-25T20:06:36.736Z,2.23
2022-09-25T20:09:04.942Z,2.30
2022-09-25T20:11:33.602Z,2.70
2022-09-25T20:14:04.923Z,3.20
2022-09-25T20:16:33.441Z,2.30
2022-09-25T20:19:02.885Z,2.67
2022-09-25T20:21:32.795Z,2.00
2022-09-25T20:24:01.469Z,1.83
2022-09-25T20:26:29.860Z,2.40
2022-09-25T20:28:58.782Z,2.50
2022-09-25T20:31:28.963Z,2.47
2022-09-25T20:33:57.329Z,2.30
2022-09-25T20:36:25.660Z,2.53
2022-09-25T20:38:53.863Z,2.00
2022-09-25T20:41:22.385Z,2.63
2022-09-25T20:43:50.928Z,2.80
2022-09-25T20:46:20.573Z,2.27
2022-09-25T20:48:51.298Z,2.30
2022-09-25T20:51:20.550Z,2.63
2022-09-25T20:53:50.962Z,2.20
2022-09-25T20:56:19.066Z,3.00
2022-09-25T20:58:52.160Z,2.77
2022-09-25T21:01:23.022Z,2.20
2022-09-25T21:03:52.918Z,2.83
2022-09-25T21:06:21.826Z,2.77
2022-09-25T21:08:52.569Z,2.20
2022-09-25T21:11:20.491Z,2.90
2022-09-25T21:13:50.780Z,2.70
2022-09-25T21:16:18.902Z,2.50
2022-09-25T21:18:51.746Z,3.00
2022-09-25T21:21:21.449Z,2.63
2022-09-25T21:23:50.193Z,2.60
2022-09-25T21:26:18.412Z,2.80
2022-09-25T21:28:47.249Z,2.20
2022-09-25T21:31:17.072Z,2.50
2022-09-25T21:33:45.013Z,2.50
2022-09-25T21:36:13.958Z,2.47
2022-09-25T21:38:43.360Z,2.50
2022-09-25T21:41:12.916Z,2.43
2022-09-25T21:43:41.116Z,2.47
2022-09-25T21:46:10.050Z,2.53
2022-09-25T21:48:38.407Z,2.83
2022-09-25T21:51:07.579Z,2.37
2022-09-25T21:53:35.661Z,3.40
2022-09-25T21:56:06.702Z,2.70
2022-09-25T21:58:34.868Z,2.80
2022-09-25T22:01:06.857Z,2.80
2022-09-25T22:03:35.550Z,2.37
2022-09-25T22:06:04.215Z,2.63
2022-09-25T22:08:32.844Z,2.83
2022-09-25T22:11:01.397Z,2.73
2022-09-25T22:13:31.908Z,2.60
2022-09-25T22:16:00.501Z,2.73
2022-09-25T22:18:28.515Z,2.37
2022-09-25T22:20:56.602Z,2.70
2022-09-25T22:23:25.163Z,2.13
2022-09-25T22:25:55.489Z,2.73
2022-09-25T22:28:23.385Z,2.63
2022-09-25T22:30:52.727Z,2.83
2022-09-25T22:33:20.721Z,2.70
2022-09-25T22:35:48.831Z,2.70
2022-09-25T22:38:16.726Z,2.90
2022-09-25T22:40:44.719Z,3.00
2022-09-25T22:43:12.710Z,2.93
2022-09-25T22:45:40.632Z,3.00
2022-09-25T22:48:10.141Z,3.10
2022-09-25T22:50:38.049Z,2.80
2022-09-25T22:53:05.936Z,3.33
2022-09-25T22:55:34.045Z,2.60
2022-09-25T22:58:01.943Z,2.97
2022-09-25T23:00:29.963Z,3.10
2022-09-25T23:02:57.929Z,3.30
2022-09-25T23:05:27.338Z,4.17
2022-09-25T23:07:55.278Z,3.30
2022-09-25T23:10:23.209Z,4.07
2022-09-25T23:12:51.267Z,3.40
2022-09-25T23:15:19.182Z,3.80
2022-09-25T23:17:47.075Z,3.90
2022-09-25T23:20:15.030Z,3.30
2022-09-25T23:22:44.346Z,2.80
2022-09-25T23:25:12.282Z,3.10
2022-09-25T23:27:40.185Z,3.20
2022-09-25T23:30:08.725Z,3.27
2022-09-25T23:32:36.659Z,3.40
2022-09-25T23:35:04.831Z,3.30
2022-09-25T23:37:32.721Z,3.10
2022-09-25T23:40:02.315Z,2.97
2022-09-25T23:42:30.225Z,2.70
2022-09-25T23:44:58.192Z,3.40
2022-09-25T23:47:26.137Z,3.30
2022-09-25T23:49:54.064Z,3.13
2022-09-25T23:52:21.945Z,2.73
2022-09-25T23:54:50.357Z,3.20
2022-09-25T23:57:19.796Z,3.33
2022-09-25T23:59:47.696Z,3.00
